createdAt,value
2017-12-17T00:02:08.138Z,20.83
2017-12-17T00:04:35.607Z,26.73
2017-12-17T00:07:03.877Z,24.92
2017-12-17T00:09:33.923Z,25.05
2017-12-17T00:12:01.447Z,23.35
2017-12-17T00:14:29.683Z,25.52
2017-12-17T00:16:57.189Z,22.40
2017-12-17T00:19:25.460Z,23.58
2017-12-17T00:21:53.682Z,18.55
2017-12-17T00:24:21.147Z,21.48
2017-12-17T00:26:48.665Z,22.73
2017-12-17T00:29:16.892Z,23.87
2017-12-17T00:31:44.388Z,21.70
2017-12-17T00:34:12.665Z,20.25
2017-12-17T00:36:40.942Z,19.52
2017-12-17T00:39:09.163Z,21.02
2017-12-17T00:41:36.635Z,21.17
2017-12-17T00:44:04.099Z,20.92
2017-12-17T00:46:31.568Z,19.90
2017-12-17T00:48:59.043Z,24.70
2017-12-17T00:51:26.520Z,23.55
2017-12-17T00:53:53.997Z,21.58
2017-12-17T00:56:21.478Z,26.37
2017-12-17T00:58:48.938Z,27.05
2017-12-17T01:01:16.422Z,22.77
2017-12-17T01:03:43.892Z,30.52
2017-12-17T01:06:12.132Z,31.35
2017-12-17T01:08:39.604Z,24.25
2017-12-17T01:11:07.063Z,30.27
2017-12-17T01:13:34.528Z,28.98
2017-12-17T01:16:01.995Z,23.15
2017-12-17T01:18:30.251Z,28.85
2017-12-17T01:20:57.716Z,27.30
2017-12-17T01:23:25.207Z,31.17
2017-12-17T01:25:52.675Z,26.90
2017-12-17T01:28:20.188Z,27.27
2017-12-17T01:30:47.693Z,24.48
2017-12-17T01:33:15.152Z,26.42
2017-12-17T01:35:42.633Z,21.33
2017-12-17T01:38:10.101Z,25.90
2017-12-17T01:40:37.564Z,26.65
2017-12-17T01:43:05.077Z,26.02
2017-12-17T01:45:34.271Z,20.35
2017-12-17T01:48:01.754Z,19.83
2017-12-17T01:50:29.232Z,20.85
2017-12-17T01:52:56.695Z,23.33
2017-12-17T01:55:24.172Z,21.83
2017-12-17T01:57:51.637Z,21.67
2017-12-17T02:00:19.871Z,22.30
2017-12-17T02:02:47.335Z,22.00
2017-12-17T02:05:14.803Z,21.70
2017-12-17T02:07:42.272Z,22.08
2017-12-17T02:10:09.779Z,26.00
2017-12-17T02:12:37.242Z,19.20
2017-12-17T02:15:04.715Z,20.85
2017-12-17T02:17:32.186Z,22.27
2017-12-17T02:19:59.661Z,24.85
2017-12-17T02:22:27.136Z,19.20
2017-12-17T02:24:55.392Z,25.08
2017-12-17T02:27:22.854Z,23.52
2017-12-17T02:29:50.334Z,27.73
2017-12-17T02:32:18.576Z,24.08
2017-12-17T02:34:46.040Z,23.80
2017-12-17T02:37:13.507Z,26.70
2017-12-17T02:39:41.760Z,23.87
2017-12-17T02:42:09.239Z,23.52
2017-12-17T02:44:37.474Z,24.12
2017-12-17T02:47:04.953Z,21.92
2017-12-17T02:49:32.420Z,26.35
2017-12-17T02:51:59.907Z,20.15
2017-12-17T02:54:28.128Z,24.00
2017-12-17T02:56:55.595Z,21.12
2017-12-17T02:59:23.638Z,23.83
2017-12-17T03:01:51.077Z,17.90
2017-12-17T03:04:18.536Z,18.73
2017-12-17T03:06:46.007Z,22.17
2017-12-17T03:09:13.472Z,21.62
2017-12-17T03:11:40.991Z,21.15
2017-12-17T03:14:09.223Z,17.67
2017-12-17T03:16:36.701Z,17.58
2017-12-17T03:19:04.172Z,18.20
2017-12-17T03:21:31.665Z,24.15
2017-12-17T03:23:59.135Z,19.15
2017-12-17T03:26:26.623Z,22.65
2017-12-17T03:28:54.888Z,20.92
2017-12-17T03:31:22.349Z,18.20
2017-12-17T03:33:49.814Z,18.60
2017-12-17T03:36:17.280Z,20.83
2017-12-17T03:38:44.764Z,18.83
2017-12-17T03:41:12.227Z,26.37
2017-12-17T03:43:40.471Z,16.45
2017-12-17T03:46:07.946Z,19.58
2017-12-17T03:48:35.416Z,19.75
2017-12-17T03:51:03.647Z,17.45
2017-12-17T03:53:31.123Z,19.25
2017-12-17T03:55:58.583Z,20.60
2017-12-17T03:58:26.070Z,18.65
2017-12-17T04:00:54.304Z,22.77
2017-12-17T04:03:21.768Z,20.90
2017-12-17T04:05:49.246Z,19.62
2017-12-17T04:08:16.715Z,17.92
2017-12-17T04:10:44.953Z,22.17
2017-12-17T04:13:12.411Z,20.90
2017-12-17T04:15:39.909Z,21.08
2017-12-17T04:18:07.472Z,19.65
2017-12-17T04:20:35.708Z,25.92
2017-12-17T04:23:03.172Z,21.70
2017-12-17T04:25:30.646Z,27.92
2017-12-17T04:27:58.123Z,20.60
2017-12-17T04:30:26.357Z,20.08
2017-12-17T04:32:53.822Z,25.70
2017-12-17T04:35:21.296Z,20.80
2017-12-17T04:37:48.755Z,22.62
2017-12-17T04:40:16.235Z,19.40
2017-12-17T04:42:44.476Z,21.33
2017-12-17T04:45:11.940Z,23.70
2017-12-17T04:47:39.407Z,22.23
2017-12-17T04:50:06.887Z,21.35
2017-12-17T04:52:35.127Z,21.95
2017-12-17T04:55:02.588Z,24.85
2017-12-17T04:57:30.067Z,23.40
2017-12-17T04:59:58.295Z,24.58
2017-12-17T05:02:25.768Z,23.17
2017-12-17T05:04:53.247Z,22.00
2017-12-17T05:07:20.717Z,23.10
2017-12-17T05:09:48.947Z,22.13
2017-12-17T05:12:16.420Z,23.50
2017-12-17T05:14:43.886Z,27.15
2017-12-17T05:17:11.363Z,21.67
2017-12-17T05:19:38.817Z,23.80
2017-12-17T05:22:06.307Z,23.95
2017-12-17T05:24:33.793Z,24.35
2017-12-17T05:27:01.259Z,24.10
2017-12-17T05:29:28.740Z,21.20
2017-12-17T05:31:56.210Z,22.80
2017-12-17T05:34:23.716Z,19.48
2017-12-17T05:36:51.173Z,23.48
2017-12-17T05:39:18.643Z,22.73
2017-12-17T05:41:46.111Z,26.77
2017-12-17T05:44:13.583Z,19.35
2017-12-17T05:46:41.044Z,18.90
2017-12-17T05:49:08.522Z,21.55
2017-12-17T05:51:36.759Z,24.75
2017-12-17T05:54:04.238Z,23.00
2017-12-17T05:56:31.716Z,21.73
2017-12-17T05:58:59.955Z,26.00
2017-12-17T06:01:27.439Z,21.58
2017-12-17T06:03:54.940Z,19.08
2017-12-17T06:06:22.402Z,19.17
2017-12-17T06:08:49.858Z,29.65
2017-12-17T06:11:17.337Z,19.58
2017-12-17T06:13:44.796Z,19.95
2017-12-17T06:16:12.262Z,22.98
2017-12-17T06:18:39.734Z,26.02
2017-12-17T06:21:07.199Z,22.73
2017-12-17T06:23:35.443Z,23.02
2017-12-17T06:26:02.907Z,21.70
2017-12-17T06:28:30.389Z,23.67
2017-12-17T06:30:58.631Z,23.95
2017-12-17T06:33:26.094Z,21.90
2017-12-17T06:35:53.563Z,21.08
2017-12-17T06:38:21.040Z,33.38
2017-12-17T06:40:49.279Z,19.98
2017-12-17T06:43:16.766Z,20.15
2017-12-17T06:45:44.347Z,22.30
2017-12-17T06:48:12.570Z,19.70
2017-12-17T06:50:40.031Z,19.70
2017-12-17T06:53:07.504Z,20.12
2017-12-17T06:55:34.974Z,17.25
2017-12-17T06:58:02.436Z,21.65
2017-12-17T07:00:30.668Z,19.70
2017-12-17T07:02:58.147Z,19.05
2017-12-17T07:05:25.612Z,20.80
2017-12-17T07:07:53.087Z,19.35
2017-12-17T07:10:21.314Z,19.27
2017-12-17T07:12:48.807Z,18.37
2017-12-17T07:15:16.291Z,20.35
2017-12-17T07:17:43.771Z,18.40
2017-12-17T07:20:11.230Z,20.20
2017-12-17T07:22:38.740Z,16.45
2017-12-17T07:25:06.209Z,15.80
2017-12-17T07:27:34.442Z,22.30
2017-12-17T07:30:01.912Z,17.27
2017-12-17T07:32:29.388Z,17.00
2017-12-17T07:34:56.859Z,15.38
2017-12-17T07:37:25.119Z,16.58
2017-12-17T07:39:52.599Z,19.95
2017-12-17T07:42:20.827Z,17.65
2017-12-17T07:44:48.299Z,17.52
2017-12-17T07:47:15.760Z,16.70
2017-12-17T07:49:43.240Z,16.45
2017-12-17T07:52:11.472Z,16.25
2017-12-17T07:54:38.943Z,16.95
2017-12-17T07:57:06.408Z,17.05
2017-12-17T07:59:34.826Z,14.80
2017-12-17T08:02:03.051Z,16.48
2017-12-17T08:04:30.518Z,18.77
2017-12-17T08:06:57.974Z,14.87
2017-12-17T08:09:25.447Z,20.02
2017-12-17T08:11:53.608Z,17.58
2017-12-17T08:14:21.094Z,15.38
2017-12-17T08:16:49.335Z,14.50
2017-12-17T08:19:16.791Z,17.45
2017-12-17T08:21:44.271Z,14.48
2017-12-17T08:24:11.723Z,17.45
2017-12-17T08:26:39.204Z,14.68
2017-12-17T08:29:07.427Z,16.80
2017-12-17T08:31:34.904Z,15.73
2017-12-17T08:34:02.359Z,12.95
2017-12-17T08:36:29.851Z,13.93
2017-12-17T08:38:58.095Z,16.17
2017-12-17T08:41:26.321Z,13.60
2017-12-17T08:43:53.791Z,16.02
2017-12-17T08:46:21.268Z,13.65
2017-12-17T08:48:48.748Z,13.93
2017-12-17T08:51:16.216Z,14.20
2017-12-17T08:53:43.687Z,12.75
2017-12-17T08:56:11.909Z,12.15
2017-12-17T08:58:39.379Z,13.98
2017-12-17T09:01:06.891Z,13.50
2017-12-17T09:03:34.356Z,14.13
2017-12-17T09:06:01.816Z,10.25
2017-12-17T09:08:29.320Z,12.15
2017-12-17T09:10:56.799Z,11.57
2017-12-17T09:13:25.031Z,9.13
2017-12-17T09:15:52.507Z,10.75
2017-12-17T09:18:19.971Z,10.93
2017-12-17T09:20:47.439Z,8.77
2017-12-17T09:23:15.667Z,10.48
2017-12-17T09:25:43.136Z,10.10
2017-12-17T09:28:11.081Z,11.00
2017-12-17T09:30:38.539Z,7.93
2017-12-17T09:33:05.996Z,10.48
2017-12-17T09:35:33.461Z,14.50
2017-12-17T09:38:00.923Z,10.55
2017-12-17T09:40:28.403Z,8.65
2017-12-17T09:42:55.867Z,9.60
2017-12-17T09:45:23.321Z,9.85
2017-12-17T09:47:50.784Z,10.90
2017-12-17T09:50:18.293Z,8.50
2017-12-17T09:52:45.761Z,8.95
2017-12-17T09:55:13.212Z,9.02
2017-12-17T09:57:40.680Z,8.93
2017-12-17T10:00:08.143Z,11.38
2017-12-17T10:02:35.619Z,10.63
2017-12-17T10:05:03.079Z,13.60
2017-12-17T10:07:30.887Z,16.15
2017-12-17T10:09:59.109Z,12.27
2017-12-17T10:12:26.579Z,9.52
2017-12-17T10:14:54.038Z,11.63
2017-12-17T10:17:21.535Z,11.32
2017-12-17T10:19:49.794Z,10.57
2017-12-17T10:22:17.219Z,8.93
2017-12-17T10:24:44.704Z,10.18
2017-12-17T10:27:12.150Z,8.50
2017-12-17T10:29:39.627Z,9.38
2017-12-17T10:32:07.085Z,13.23
2017-12-17T10:34:35.321Z,9.23
2017-12-17T10:37:02.775Z,7.80
2017-12-17T10:39:30.248Z,14.57
2017-12-17T10:41:57.704Z,7.90
2017-12-17T10:44:25.187Z,9.80
2017-12-17T10:46:52.648Z,8.40
2017-12-17T10:49:20.130Z,10.20
2017-12-17T10:51:48.351Z,12.90
2017-12-17T10:54:15.812Z,10.30
2017-12-17T10:56:43.279Z,12.18
2017-12-17T10:59:10.846Z,12.88
2017-12-17T11:01:38.315Z,11.07
2017-12-17T11:04:06.540Z,11.48
2017-12-17T11:06:34.020Z,13.27
2017-12-17T11:09:01.545Z,14.93
2017-12-17T11:11:29.103Z,12.00
2017-12-17T11:13:56.555Z,12.68
2017-12-17T11:16:24.025Z,10.30
2017-12-17T11:18:51.483Z,13.50
2017-12-17T11:21:19.603Z,11.10
2017-12-17T11:23:47.092Z,13.30
2017-12-17T11:26:15.311Z,15.70
2017-12-17T11:28:42.776Z,10.15
2017-12-17T11:31:10.231Z,11.63
2017-12-17T11:33:37.787Z,12.07
2017-12-17T11:36:05.243Z,12.13
2017-12-17T11:38:32.711Z,10.80
2017-12-17T11:41:00.212Z,9.40
2017-12-17T11:43:27.680Z,12.15
2017-12-17T11:45:55.178Z,10.13
2017-12-17T11:48:22.698Z,10.15
2017-12-17T11:50:50.143Z,9.60
2017-12-17T11:53:17.643Z,10.50
2017-12-17T11:55:45.103Z,9.10
2017-12-17T11:58:12.655Z,12.00
2017-12-17T12:00:40.120Z,11.00
2017-12-17T12:03:07.615Z,9.80
2017-12-17T12:05:35.844Z,14.20
2017-12-17T12:08:03.300Z,9.30
2017-12-17T12:10:31.816Z,8.80
2017-12-17T12:12:59.271Z,7.68
2017-12-17T12:15:26.785Z,9.07
2017-12-17T12:17:54.235Z,7.32
2017-12-17T12:20:21.699Z,6.30
2017-12-17T12:22:49.172Z,5.15
2017-12-17T12:25:16.678Z,5.72
2017-12-17T12:27:44.184Z,6.35
2017-12-17T12:30:11.651Z,7.05
2017-12-17T12:32:39.131Z,10.07
2017-12-17T12:35:07.372Z,6.70
2017-12-17T12:37:34.826Z,6.70
2017-12-17T12:40:02.295Z,9.70
2017-12-17T12:42:29.751Z,5.15
2017-12-17T12:44:57.259Z,7.70
2017-12-17T12:47:25.483Z,5.55
2017-12-17T12:49:52.978Z,9.60
2017-12-17T12:52:20.456Z,8.85
2017-12-17T12:54:48.725Z,7.18
2017-12-17T12:57:16.994Z,6.85
2017-12-17T12:59:44.463Z,7.25
2017-12-17T13:02:12.737Z,8.88
2017-12-17T13:04:41.005Z,9.90
2017-12-17T13:07:08.462Z,5.40
2017-12-17T13:09:36.683Z,8.30
2017-12-17T13:12:04.191Z,6.75
2017-12-17T13:14:31.705Z,8.00
2017-12-17T13:16:59.195Z,7.62
2017-12-17T13:19:26.701Z,9.07
2017-12-17T13:21:54.175Z,7.55
2017-12-17T13:24:21.681Z,7.45
2017-12-17T13:26:49.189Z,6.70
2017-12-17T13:29:16.652Z,7.12
2017-12-17T13:31:44.165Z,6.20
2017-12-17T13:34:12.470Z,7.80
2017-12-17T13:36:39.959Z,7.40
2017-12-17T13:39:07.435Z,9.32
2017-12-17T13:41:34.883Z,9.55
2017-12-17T13:44:02.363Z,9.95
2017-12-17T13:46:29.812Z,8.05
2017-12-17T13:48:57.279Z,8.68
2017-12-17T13:51:24.744Z,10.85
2017-12-17T13:53:53.049Z,9.88
2017-12-17T13:56:20.537Z,6.65
2017-12-17T13:58:48.026Z,12.07
2017-12-17T14:01:15.529Z,9.10
2017-12-17T14:03:43.050Z,9.90
2017-12-17T14:06:10.567Z,11.38
2017-12-17T14:08:38.034Z,10.10
2017-12-17T14:11:05.503Z,12.23
2017-12-17T14:13:32.964Z,10.77
2017-12-17T14:16:00.460Z,8.10
2017-12-17T14:18:28.722Z,9.13
2017-12-17T14:20:56.952Z,8.70
2017-12-17T14:23:24.406Z,8.95
2017-12-17T14:25:51.875Z,10.65
2017-12-17T14:28:19.336Z,9.15
2017-12-17T14:30:46.841Z,10.05
2017-12-17T14:33:15.063Z,8.02
2017-12-17T14:35:42.535Z,10.02
2017-12-17T14:38:16.536Z,8.93
2017-12-17T14:40:44.037Z,8.77
2017-12-17T14:43:12.258Z,8.98
2017-12-17T14:45:39.760Z,9.35
2017-12-17T14:48:07.979Z,8.82
2017-12-17T14:50:35.446Z,10.80
2017-12-17T14:53:02.946Z,7.62
2017-12-17T14:55:30.453Z,8.05
2017-12-17T14:57:57.906Z,9.75
2017-12-17T15:00:25.417Z,9.18
2017-12-17T15:02:52.873Z,13.05
2017-12-17T15:05:20.323Z,8.55
2017-12-17T15:07:47.831Z,10.02
2017-12-17T15:10:15.289Z,9.65
2017-12-17T15:12:42.752Z,7.97
2017-12-17T15:15:10.208Z,14.00
2017-12-17T15:17:37.717Z,8.10
2017-12-17T15:20:05.327Z,10.60
2017-12-17T15:22:32.825Z,8.77
2017-12-17T15:25:00.300Z,8.45
2017-12-17T15:27:27.801Z,7.78
2017-12-17T15:29:55.302Z,10.05
2017-12-17T15:32:22.815Z,11.80
2017-12-17T15:34:51.030Z,9.45
2017-12-17T15:37:18.500Z,9.52
2017-12-17T15:39:45.956Z,10.65
2017-12-17T15:42:13.434Z,11.52
2017-12-17T15:44:40.892Z,9.00
2017-12-17T15:47:08.359Z,9.90
2017-12-17T15:49:36.629Z,11.18
2017-12-17T15:52:04.091Z,11.05
2017-12-17T15:54:31.603Z,10.27
2017-12-17T15:56:59.135Z,8.65
2017-12-17T15:59:27.400Z,14.50
2017-12-17T16:01:55.647Z,9.18
2017-12-17T16:04:23.107Z,8.40
2017-12-17T16:06:50.572Z,11.45
2017-12-17T16:09:18.093Z,11.15
2017-12-17T16:11:46.507Z,8.60
2017-12-17T16:14:14.070Z,9.00
2017-12-17T16:16:55.166Z,10.98
2017-12-17T16:19:23.556Z,14.95
2017-12-17T16:21:51.222Z,10.18
2017-12-17T16:24:19.530Z,10.68
2017-12-17T16:26:47.115Z,10.20
2017-12-17T16:29:14.716Z,13.13
2017-12-17T16:31:42.266Z,9.15
2017-12-17T16:34:09.844Z,9.95
2017-12-17T16:36:37.429Z,8.85
2017-12-17T16:39:05.743Z,11.00
2017-12-17T16:41:33.336Z,11.82
2017-12-17T16:44:00.866Z,6.57
2017-12-17T16:46:28.383Z,9.68
2017-12-17T16:48:55.960Z,11.07
2017-12-17T16:51:23.571Z,11.85
2017-12-17T16:53:51.189Z,10.02
2017-12-17T16:56:18.774Z,10.70
2017-12-17T16:58:46.371Z,10.88
2017-12-17T17:01:14.668Z,11.05
2017-12-17T17:03:42.953Z,8.60
2017-12-17T17:06:10.490Z,14.68
2017-12-17T17:08:38.049Z,13.93
2017-12-17T17:11:05.544Z,12.95
2017-12-17T17:13:33.083Z,9.20
2017-12-17T17:16:01.458Z,11.30
2017-12-17T17:18:29.010Z,8.77
2017-12-17T17:20:56.525Z,8.93
2017-12-17T17:23:24.032Z,11.25
2017-12-17T17:25:52.398Z,10.75
2017-12-17T17:28:19.959Z,10.52
2017-12-17T17:30:47.531Z,15.70
2017-12-17T17:33:15.074Z,9.20
2017-12-17T17:35:42.597Z,7.62
2017-12-17T17:38:10.122Z,8.43
2017-12-17T17:40:37.616Z,11.75
2017-12-17T17:43:05.206Z,8.48
2017-12-17T17:45:32.754Z,8.82
2017-12-17T17:48:00.294Z,10.43
2017-12-17T17:50:27.844Z,9.82
2017-12-17T17:52:55.386Z,9.60
2017-12-17T17:55:22.961Z,8.65
2017-12-17T17:57:50.509Z,13.05
2017-12-17T18:00:18.025Z,8.60
2017-12-17T18:02:45.582Z,8.57
2017-12-17T18:05:13.104Z,7.62
2017-12-17T18:07:40.636Z,11.27
2017-12-17T18:10:08.160Z,11.43
2017-12-17T18:12:35.722Z,12.43
2017-12-17T18:15:03.195Z,9.80
2017-12-17T18:17:30.762Z,8.98
2017-12-17T18:19:58.294Z,8.85
2017-12-17T18:22:25.843Z,7.15
2017-12-17T18:24:53.362Z,9.95
2017-12-17T18:27:21.706Z,8.60
2017-12-17T18:29:49.260Z,9.05
2017-12-17T18:32:16.751Z,9.70
2017-12-17T18:34:44.296Z,8.80
2017-12-17T18:37:11.821Z,11.55
2017-12-17T18:39:39.364Z,7.25
2017-12-17T18:42:06.911Z,10.60
2017-12-17T18:44:34.418Z,10.35
2017-12-17T18:47:01.949Z,8.25
2017-12-17T18:49:29.495Z,9.18
2017-12-17T18:51:56.990Z,7.82
2017-12-17T18:54:24.560Z,10.93
2017-12-17T18:56:52.088Z,9.98
2017-12-17T18:59:19.634Z,8.52
2017-12-17T19:01:47.163Z,9.95
2017-12-17T19:04:14.693Z,12.15
2017-12-17T19:06:42.206Z,12.80
2017-12-17T19:09:09.733Z,9.63
2017-12-17T19:11:37.261Z,9.48
2017-12-17T19:14:04.834Z,8.85
2017-12-17T19:16:32.360Z,13.80
2017-12-17T19:18:59.884Z,11.88
2017-12-17T19:21:27.413Z,9.57
2017-12-17T19:23:54.938Z,11.63
2017-12-17T19:26:22.414Z,14.05
2017-12-17T19:28:49.979Z,10.70
2017-12-17T19:31:17.546Z,11.00
2017-12-17T19:33:45.072Z,13.57
2017-12-17T19:36:12.635Z,10.15
2017-12-17T19:38:40.165Z,12.48
2017-12-17T19:41:08.500Z,10.57
2017-12-17T19:43:36.061Z,12.02
2017-12-17T19:46:03.586Z,15.65
2017-12-17T19:48:31.164Z,8.82
2017-12-17T19:50:58.686Z,12.48
2017-12-17T19:53:26.213Z,12.23
2017-12-17T19:55:53.760Z,11.73
2017-12-17T19:58:21.288Z,11.30
2017-12-17T20:00:48.802Z,10.27
2017-12-17T20:03:16.340Z,8.55
2017-12-17T20:05:43.853Z,12.90
2017-12-17T20:08:11.393Z,10.43
2017-12-17T20:10:39.721Z,10.57
2017-12-17T20:13:07.303Z,10.60
2017-12-17T20:15:34.837Z,12.02
2017-12-17T20:18:02.391Z,9.05
2017-12-17T20:20:29.952Z,17.05
2017-12-17T20:22:57.498Z,11.38
2017-12-17T20:25:25.040Z,10.77
2017-12-17T20:27:52.570Z,11.60
2017-12-17T20:30:20.101Z,13.13
2017-12-17T20:32:47.650Z,11.15
2017-12-17T20:35:15.206Z,9.50
2017-12-17T20:37:42.774Z,9.20
2017-12-17T20:40:10.800Z,12.60
2017-12-17T20:42:38.394Z,13.65
2017-12-17T20:45:06.729Z,10.40
2017-12-17T20:47:34.240Z,12.45
2017-12-17T20:50:02.568Z,13.15
2017-12-17T20:52:30.079Z,11.88
2017-12-17T20:54:57.626Z,11.00
2017-12-17T20:57:25.171Z,10.57
2017-12-17T20:59:53.472Z,12.70
2017-12-17T21:02:21.754Z,11.18
2017-12-17T21:04:49.294Z,12.70
2017-12-17T21:07:17.678Z,20.83
2017-12-17T21:09:45.976Z,14.87
2017-12-17T21:12:13.491Z,15.07
2017-12-17T21:14:41.026Z,25.08
2017-12-17T21:17:08.565Z,14.00
2017-12-17T21:19:36.092Z,13.43
2017-12-17T21:22:04.454Z,14.23
2017-12-17T21:24:32.014Z,15.38
2017-12-17T21:26:59.564Z,12.85
2017-12-17T21:29:27.081Z,12.48
2017-12-17T21:31:54.618Z,13.48
2017-12-17T21:34:22.931Z,10.98
2017-12-17T21:36:50.456Z,11.45
2017-12-17T21:39:18.745Z,10.10
2017-12-17T21:41:46.343Z,13.38
2017-12-17T21:44:13.922Z,12.02
2017-12-17T21:46:42.283Z,11.40
2017-12-17T21:49:09.871Z,12.15
2017-12-17T21:51:37.491Z,12.18
2017-12-17T21:54:05.019Z,12.15
2017-12-17T21:56:32.582Z,11.73
2017-12-17T21:59:00.876Z,10.90
2017-12-17T22:01:28.422Z,11.82
2017-12-17T22:03:55.975Z,12.32
2017-12-17T22:06:24.293Z,10.60
2017-12-17T22:08:51.875Z,12.37
2017-12-17T22:11:19.492Z,9.32
2017-12-17T22:13:47.058Z,12.75
2017-12-17T22:16:14.694Z,13.88
2017-12-17T22:18:42.998Z,9.23
2017-12-17T22:21:10.607Z,11.48
2017-12-17T22:23:38.123Z,9.90
2017-12-17T22:26:05.634Z,15.52
2017-12-17T22:28:33.213Z,10.48
2017-12-17T22:31:01.526Z,11.68
2017-12-17T22:33:29.117Z,8.55
2017-12-17T22:35:56.679Z,13.23
2017-12-17T22:38:24.201Z,11.07
2017-12-17T22:40:51.730Z,10.63
2017-12-17T22:43:20.053Z,10.90
2017-12-17T22:45:47.594Z,9.25
2017-12-17T22:48:15.105Z,10.70
2017-12-17T22:50:42.648Z,9.00
2017-12-17T22:53:10.221Z,10.10
2017-12-17T22:55:37.727Z,9.68
2017-12-17T22:58:05.260Z,7.45
2017-12-17T23:00:32.788Z,9.57
2017-12-17T23:03:00.413Z,10.57
2017-12-17T23:05:27.975Z,9.65
2017-12-17T23:07:55.496Z,9.43
2017-12-17T23:10:23.040Z,9.68
2017-12-17T23:12:50.592Z,9.32
2017-12-17T23:15:18.073Z,10.13
2017-12-17T23:17:45.574Z,10.23
2017-12-17T23:20:13.067Z,9.27
2017-12-17T23:22:40.540Z,8.35
2017-12-17T23:25:08.046Z,10.65
2017-12-17T23:27:35.521Z,9.13
2017-12-17T23:30:03.027Z,7.53
2017-12-17T23:32:30.519Z,7.72
2017-12-17T23:34:58.038Z,7.07
2017-12-17T23:37:25.564Z,11.15
2017-12-17T23:39:53.050Z,11.65
2017-12-17T23:42:20.555Z,7.60
2017-12-17T23:44:48.857Z,8.10
2017-12-17T23:47:16.350Z,8.65
2017-12-17T23:49:43.840Z,14.87
2017-12-17T23:52:12.090Z,9.57
2017-12-17T23:54:40.372Z,7.50
2017-12-17T23:57:07.850Z,6.78
2017-12-17T23:59:36.089Z,8.52
